createdAt,value
2022-11-29T00:01:02.318Z,7.80
2022-11-29T00:03:33.366Z,7.80
2022-11-29T00:06:15.460Z,7.80
2022-11-29T00:08:42.923Z,7.90
2022-11-29T00:11:13.467Z,7.80
2022-11-29T00:13:40.672Z,7.80
2022-11-29T00:16:10.736Z,7.80
2022-11-29T00:18:37.582Z,7.80
2022-11-29T00:21:08.834Z,7.80
2022-11-29T00:23:36.154Z,7.80
2022-11-29T00:26:08.046Z,7.80
2022-11-29T00:28:36.414Z,7.80
2022-11-29T00:31:23.437Z,7.80
2022-11-29T00:33:50.592Z,7.80
2022-11-29T00:36:18.152Z,7.80
2022-11-29T00:38:44.795Z,7.80
2022-11-29T00:41:12.175Z,7.80
2022-11-29T00:43:39.466Z,7.80
2022-11-29T00:46:07.958Z,7.80
2022-11-29T00:48:35.538Z,7.80
2022-11-29T00:51:04.248Z,7.80
2022-11-29T00:53:31.297Z,7.80
2022-11-29T00:55:58.225Z,7.80
2022-11-29T00:58:25.344Z,7.80
2022-11-29T01:00:56.201Z,7.80
2022-11-29T01:03:23.910Z,7.80
2022-11-29T01:05:51.493Z,7.80
2022-11-29T01:08:18.924Z,7.80
2022-11-29T01:10:46.330Z,7.80
2022-11-29T01:13:14.253Z,7.80
2022-11-29T01:15:42.339Z,7.80
2022-11-29T01:18:08.981Z,7.80
2022-11-29T01:20:36.423Z,7.80
2022-11-29T01:23:03.070Z,7.80
2022-11-29T01:25:30.036Z,7.70
2022-11-29T01:27:56.631Z,7.70
2022-11-29T01:30:23.575Z,7.70
2022-11-29T01:32:50.532Z,7.70
2022-11-29T01:35:17.198Z,7.70
2022-11-29T01:37:44.424Z,7.70
2022-11-29T01:40:11.483Z,7.70
2022-11-29T01:42:38.715Z,7.70
2022-11-29T01:45:15.451Z,7.70
2022-11-29T01:47:46.125Z,7.70
2022-11-29T01:50:13.242Z,7.70
2022-11-29T01:52:41.608Z,7.70
2022-11-29T01:55:09.971Z,7.70
2022-11-29T01:57:40.592Z,7.70
2022-11-29T02:00:12.686Z,7.70
2022-11-29T02:02:54.033Z,7.70
2022-11-29T02:05:21.309Z,7.70
2022-11-29T02:07:52.041Z,7.70
2022-11-29T02:10:19.264Z,7.70
2022-11-29T02:12:59.518Z,7.70
2022-11-29T02:15:40.609Z,7.70
2022-11-29T02:18:15.676Z,7.70
2022-11-29T02:21:01.118Z,7.70
2022-11-29T02:24:33.605Z,7.70
2022-11-29T02:27:11.233Z,7.70
2022-11-29T02:30:07.243Z,7.60
2022-11-29T02:33:09.563Z,7.70
2022-11-29T02:35:56.471Z,7.60
2022-11-29T02:38:50.318Z,7.60
2022-11-29T02:41:45.353Z,7.60
2022-11-29T02:44:39.374Z,7.60
2022-11-29T02:47:41.938Z,7.60
2022-11-29T02:50:34.726Z,7.60
2022-11-29T02:53:06.498Z,7.70
2022-11-29T02:56:06.926Z,7.70
2022-11-29T02:59:03.832Z,7.70
2022-11-29T03:01:53.948Z,7.70
2022-11-29T03:04:44.025Z,7.70
2022-11-29T03:07:41.406Z,7.70
2022-11-29T03:10:10.991Z,7.70
2022-11-29T03:12:44.658Z,7.70
2022-11-29T03:15:29.908Z,7.70
2022-11-29T03:18:18.747Z,7.70
2022-11-29T03:21:04.473Z,7.70
2022-11-29T03:23:41.639Z,7.70
2022-11-29T03:26:16.779Z,7.70
2022-11-29T03:28:53.731Z,7.70
2022-11-29T03:31:34.101Z,7.70
2022-11-29T03:34:13.264Z,7.70
2022-11-29T03:36:58.036Z,7.80
2022-11-29T03:39:39.441Z,7.70
2022-11-29T03:42:19.457Z,7.80
2022-11-29T03:44:55.785Z,7.80
2022-11-29T03:47:30.732Z,7.80
2022-11-29T03:50:06.308Z,7.70
2022-11-29T03:52:56.957Z,7.80
2022-11-29T03:55:58.570Z,7.70
2022-11-29T03:58:25.831Z,7.80
2022-11-29T04:01:11.190Z,7.80
2022-11-29T04:04:12.858Z,7.80
2022-11-29T04:06:47.071Z,7.80
2022-11-29T04:09:46.438Z,7.80
2022-11-29T04:12:29.678Z,7.80
2022-11-29T04:15:25.329Z,7.80
2022-11-29T04:18:23.658Z,7.80
2022-11-29T04:20:53.998Z,7.80
2022-11-29T04:23:45.507Z,7.80
2022-11-29T04:26:41.487Z,7.80
2022-11-29T04:29:24.423Z,7.80
2022-11-29T04:32:03.139Z,7.80
2022-11-29T04:34:57.587Z,7.80
2022-11-29T04:37:45.998Z,7.80
2022-11-29T04:40:16.505Z,7.80
2022-11-29T04:43:01.047Z,7.80
2022-11-29T04:45:55.701Z,7.80
2022-11-29T04:49:00.513Z,7.80
2022-11-29T04:51:55.734Z,7.80
2022-11-29T04:54:54.028Z,7.70
2022-11-29T04:57:42.993Z,7.70
2022-11-29T05:00:22.746Z,7.70
2022-11-29T05:02:57.066Z,7.70
2022-11-29T05:05:57.574Z,7.70
2022-11-29T05:08:24.161Z,7.70
2022-11-29T05:11:27.052Z,7.70
2022-11-29T05:14:38.889Z,7.70
2022-11-29T05:17:45.844Z,7.70
2022-11-29T05:20:26.492Z,7.70
2022-11-29T05:23:18.980Z,7.70
2022-11-29T05:26:14.054Z,7.70
2022-11-29T05:29:02.636Z,7.70
2022-11-29T05:31:56.527Z,7.70
2022-11-29T05:34:24.269Z,7.70
2022-11-29T05:37:26.781Z,7.70
2022-11-29T05:49:34.474Z,7.70
2022-11-29T05:52:21.863Z,7.70
2022-11-29T05:55:17.417Z,7.70
2022-11-29T05:57:52.802Z,7.70
2022-11-29T06:00:20.879Z,7.70
2022-11-29T06:02:47.506Z,7.60
2022-11-29T06:05:30.087Z,7.60
2022-11-29T06:08:06.953Z,7.70
2022-11-29T06:10:40.233Z,7.60
2022-11-29T06:13:09.848Z,7.70
2022-11-29T06:16:16.113Z,7.70
2022-11-29T06:19:01.332Z,7.70
2022-11-29T06:21:53.199Z,7.70
2022-11-29T06:24:25.984Z,7.70
2022-11-29T06:27:14.652Z,7.70
2022-11-29T06:29:51.170Z,7.70
2022-11-29T06:32:25.316Z,7.70
2022-11-29T06:35:02.809Z,7.70
2022-11-29T06:37:43.221Z,7.70
2022-11-29T06:40:12.940Z,7.70
2022-11-29T06:42:39.550Z,7.70
2022-11-29T06:45:07.608Z,7.70
2022-11-29T06:47:45.598Z,7.70
2022-11-29T06:50:15.893Z,7.70
2022-11-29T06:53:08.201Z,7.70
2022-11-29T06:56:06.753Z,7.70
2022-11-29T06:59:21.898Z,7.70
2022-11-29T07:02:05.820Z,7.70
2022-11-29T07:04:51.894Z,7.70
2022-11-29T07:07:21.837Z,7.70
2022-11-29T07:09:52.282Z,7.70
2022-11-29T07:12:19.278Z,7.70
2022-11-29T07:14:46.878Z,7.70
2022-11-29T07:17:33.049Z,7.70
2022-11-29T07:20:15.027Z,7.70
2022-11-29T07:23:26.637Z,7.70
2022-11-29T07:26:33.075Z,7.70
2022-11-29T07:29:06.141Z,7.70
2022-11-29T07:32:08.141Z,7.70
2022-11-29T07:35:07.303Z,7.70
2022-11-29T07:37:47.252Z,7.70
2022-11-29T07:40:25.527Z,7.70
2022-11-29T07:42:53.095Z,7.70
2022-11-29T07:45:32.185Z,7.60
2022-11-29T07:47:58.941Z,7.70
2022-11-29T07:50:27.802Z,7.70
2022-11-29T07:52:55.808Z,7.70
2022-11-29T07:55:26.200Z,7.70
2022-11-29T07:57:53.772Z,7.70
2022-11-29T08:00:21.872Z,7.70
2022-11-29T08:02:50.183Z,7.70
2022-11-29T08:05:17.816Z,7.70
2022-11-29T08:07:44.599Z,7.70
2022-11-29T08:10:14.982Z,7.70
2022-11-29T08:12:47.665Z,7.70
2022-11-29T08:15:15.039Z,7.70
2022-11-29T08:17:42.167Z,7.70
2022-11-29T08:20:11.089Z,7.70
2022-11-29T08:22:38.402Z,7.70
2022-11-29T08:25:07.030Z,7.70
2022-11-29T08:27:35.345Z,7.70
2022-11-29T08:30:02.072Z,7.70
2022-11-29T08:32:29.419Z,7.70
2022-11-29T08:34:55.994Z,7.70
2022-11-29T08:37:23.283Z,7.70
2022-11-29T08:39:49.882Z,7.70
2022-11-29T08:42:17.223Z,7.70
2022-11-29T08:44:44.213Z,7.80
2022-11-29T08:47:30.542Z,7.70
2022-11-29T08:50:02.988Z,7.70
2022-11-29T08:52:58.301Z,7.70
2022-11-29T08:55:27.964Z,7.80
2022-11-29T08:58:01.787Z,7.80
2022-11-29T09:00:29.363Z,7.80
2022-11-29T09:03:16.110Z,7.80
2022-11-29T09:05:43.822Z,7.80
2022-11-29T09:08:10.762Z,7.90
2022-11-29T09:10:41.542Z,7.90
2022-11-29T09:13:10.038Z,7.90
2022-11-29T09:15:42.509Z,7.90
2022-11-29T09:18:09.474Z,7.80
2022-11-29T09:20:36.922Z,7.90
2022-11-29T09:23:03.717Z,7.90
2022-11-29T09:25:31.078Z,8.00
2022-11-29T09:28:01.125Z,8.00
2022-11-29T09:30:31.218Z,8.10
2022-11-29T09:33:02.499Z,8.10
2022-11-29T09:35:30.113Z,8.10
2022-11-29T09:37:56.772Z,8.10
2022-11-29T09:40:31.690Z,8.20
2022-11-29T09:43:09.026Z,8.20
2022-11-29T09:45:41.694Z,8.20
2022-11-29T09:48:40.463Z,8.20
2022-11-29T09:51:10.523Z,8.20
2022-11-29T09:54:00.513Z,8.20
2022-11-29T09:56:30.525Z,8.20
2022-11-29T09:59:05.505Z,8.20
2022-11-29T10:01:42.876Z,8.30
2022-11-29T10:04:18.578Z,8.20
2022-11-29T10:07:03.526Z,8.20
2022-11-29T10:09:43.896Z,8.30
2022-11-29T10:12:35.280Z,8.30
2022-11-29T10:15:14.363Z,8.40
2022-11-29T10:17:58.470Z,8.40
2022-11-29T10:20:40.630Z,8.50
2022-11-29T10:23:24.031Z,8.50
2022-11-29T10:25:54.089Z,8.50
2022-11-29T10:28:27.661Z,8.40
2022-11-29T10:30:56.746Z,8.50
2022-11-29T10:33:33.831Z,8.50
2022-11-29T10:36:05.460Z,8.50
2022-11-29T10:38:32.459Z,8.50
2022-11-29T10:41:07.544Z,8.50
2022-11-29T10:43:34.212Z,8.50
2022-11-29T10:46:02.816Z,8.50
2022-11-29T10:48:32.877Z,8.50
2022-11-29T10:51:01.895Z,8.50
2022-11-29T10:53:35.765Z,8.50
2022-11-29T10:56:16.791Z,8.60
2022-11-29T10:58:58.835Z,8.60
2022-11-29T11:01:29.315Z,8.60
2022-11-29T11:03:58.634Z,8.60
2022-11-29T11:06:43.454Z,8.60
2022-11-29T11:09:34.277Z,8.50
2022-11-29T11:12:16.257Z,8.60
2022-11-29T11:14:44.430Z,8.70
2022-11-29T11:17:22.325Z,8.70
2022-11-29T11:20:05.492Z,8.60
2022-11-29T11:22:33.607Z,8.70
2022-11-29T11:25:07.119Z,8.60
2022-11-29T11:27:39.939Z,8.70
2022-11-29T11:30:18.844Z,8.70
2022-11-29T11:33:23.880Z,8.70
2022-11-29T11:36:25.084Z,8.70
2022-11-29T11:38:57.350Z,8.60
2022-11-29T11:41:47.409Z,8.60
2022-11-29T11:44:46.903Z,8.60
2022-11-29T11:47:28.725Z,8.60
2022-11-29T11:50:12.340Z,8.50
2022-11-29T11:52:41.941Z,8.50
2022-11-29T11:55:34.693Z,8.50
2022-11-29T11:58:13.631Z,8.50
2022-11-29T12:01:02.866Z,8.50
2022-11-29T12:03:56.606Z,8.50
2022-11-29T12:07:03.331Z,8.50
2022-11-29T12:09:44.618Z,8.40
2022-11-29T12:12:28.202Z,8.40
2022-11-29T12:14:59.667Z,8.40
2022-11-29T12:17:49.332Z,8.40
2022-11-29T12:20:31.181Z,8.40
2022-11-29T12:23:13.596Z,8.50
2022-11-29T12:25:51.042Z,8.50
2022-11-29T12:28:20.768Z,8.50
2022-11-29T12:31:26.209Z,8.40
2022-11-29T12:33:58.835Z,8.40
2022-11-29T12:36:53.015Z,8.40
2022-11-29T12:39:22.644Z,8.30
2022-11-29T12:42:06.904Z,8.30
2022-11-29T12:45:04.396Z,8.30
2022-11-29T12:48:09.390Z,8.30
2022-11-29T12:50:44.271Z,8.30
2022-11-29T12:53:48.684Z,8.30
2022-11-29T12:56:33.916Z,8.40
2022-11-29T12:59:09.548Z,8.40
2022-11-29T13:02:12.265Z,8.40
2022-11-29T13:04:53.780Z,8.40
2022-11-29T13:07:44.099Z,8.40
2022-11-29T13:10:31.997Z,8.40
2022-11-29T13:13:15.565Z,8.40
2022-11-29T13:16:04.199Z,8.40
2022-11-29T13:18:53.581Z,8.40
2022-11-29T13:21:29.815Z,8.50
2022-11-29T13:24:08.703Z,8.40
2022-11-29T13:26:38.293Z,8.50
2022-11-29T13:29:07.694Z,8.50
2022-11-29T13:31:34.634Z,8.60
2022-11-29T13:34:16.610Z,8.60
2022-11-29T13:37:23.323Z,8.60
2022-11-29T13:40:27.791Z,8.60
2022-11-29T13:43:06.924Z,8.50
2022-11-29T13:45:44.323Z,8.40
2022-11-29T13:48:27.848Z,8.40
2022-11-29T13:50:57.026Z,8.30
2022-11-29T13:53:30.866Z,8.30
2022-11-29T13:56:02.338Z,8.30
2022-11-29T13:58:37.443Z,8.30
2022-11-29T14:01:14.343Z,8.20
2022-11-29T14:03:48.026Z,8.10
2022-11-29T14:06:18.565Z,8.10
2022-11-29T14:11:48.672Z,8.00
2022-11-29T14:14:15.855Z,8.00
2022-11-29T14:16:42.453Z,7.90
2022-11-29T14:19:09.036Z,7.90
2022-11-29T14:22:06.806Z,7.90
2022-11-29T14:24:36.864Z,7.80
2022-11-29T14:27:09.985Z,7.80
2022-11-29T14:29:55.329Z,7.80
2022-11-29T14:32:31.441Z,7.80
2022-11-29T14:35:18.314Z,7.80
2022-11-29T14:38:13.129Z,7.70
2022-11-29T14:41:03.026Z,7.70
2022-11-29T14:43:36.600Z,7.60
2022-11-29T14:46:23.550Z,7.70
2022-11-29T14:48:55.833Z,7.60
2022-11-29T14:51:25.809Z,7.70
2022-11-29T14:54:06.742Z,7.60
2022-11-29T14:56:42.248Z,7.60
2022-11-29T14:59:40.798Z,7.60
2022-11-29T15:02:14.100Z,7.60
2022-11-29T15:04:41.444Z,7.60
2022-11-29T15:07:16.968Z,7.60
2022-11-29T15:09:49.246Z,7.60
2022-11-29T15:12:24.026Z,7.60
2022-11-29T15:15:19.082Z,7.60
2022-11-29T15:18:00.921Z,7.60
2022-11-29T15:21:01.784Z,7.60
2022-11-29T15:23:28.775Z,7.60
2022-11-29T15:26:01.311Z,7.60
2022-11-29T15:28:29.631Z,7.60
2022-11-29T15:31:08.442Z,7.60
2022-11-29T15:33:41.395Z,7.50
2022-11-29T15:36:13.319Z,7.50
2022-11-29T15:39:01.758Z,7.50
2022-11-29T15:41:31.256Z,7.50
2022-11-29T15:44:01.934Z,7.40
2022-11-29T15:46:30.553Z,7.40
2022-11-29T15:49:15.918Z,7.40
2022-11-29T15:51:43.189Z,7.40
2022-11-29T15:54:33.895Z,7.40
2022-11-29T15:57:05.412Z,7.40
2022-11-29T15:59:43.608Z,7.30
2022-11-29T16:02:18.161Z,7.40
2022-11-29T16:04:49.346Z,7.40
2022-11-29T16:07:17.940Z,7.30
2022-11-29T16:09:50.471Z,7.30
2022-11-29T16:12:17.946Z,7.20
2022-11-29T16:14:56.942Z,7.20
2022-11-29T16:17:29.590Z,7.20
2022-11-29T16:20:26.088Z,7.10
2022-11-29T16:23:11.440Z,7.00
2022-11-29T16:26:00.485Z,6.90
2022-11-29T16:28:34.468Z,6.80
2022-11-29T16:31:02.079Z,6.80
2022-11-29T16:33:28.821Z,6.70
2022-11-29T16:36:24.134Z,6.70
2022-11-29T16:39:06.498Z,6.70
2022-11-29T16:41:36.714Z,6.70
2022-11-29T16:44:05.694Z,6.60
2022-11-29T16:46:39.127Z,6.60
2022-11-29T16:49:33.743Z,6.50
2022-11-29T16:52:01.076Z,6.40
2022-11-29T16:54:34.249Z,6.40
2022-11-29T16:57:06.233Z,6.30
2022-11-29T16:59:35.467Z,6.30
2022-11-29T17:02:02.352Z,6.30
2022-11-29T17:04:29.712Z,6.20
2022-11-29T17:06:57.139Z,6.20
2022-11-29T17:09:27.770Z,6.10
2022-11-29T17:11:55.610Z,6.00
2022-11-29T17:14:23.308Z,5.90
2022-11-29T17:16:50.207Z,5.80
2022-11-29T17:19:19.639Z,5.70
2022-11-29T17:21:46.968Z,5.60
2022-11-29T17:24:16.047Z,5.50
2022-11-29T17:26:44.036Z,5.50
2022-11-29T17:29:12.025Z,5.40
2022-11-29T17:31:39.858Z,5.30
2022-11-29T17:34:06.703Z,5.30
2022-11-29T17:36:34.208Z,5.20
2022-11-29T17:39:02.050Z,5.20
2022-11-29T17:41:30.627Z,5.10
2022-11-29T17:43:57.730Z,5.10
2022-11-29T17:46:27.875Z,5.10
2022-11-29T17:48:55.624Z,5.00
2022-11-29T17:54:11.424Z,4.90
2022-11-29T17:56:38.763Z,4.90
2022-11-29T17:59:05.955Z,4.90
2022-11-29T18:01:35.037Z,4.80
2022-11-29T18:04:03.964Z,4.80
2022-11-29T18:06:35.370Z,4.80
2022-11-29T18:09:05.853Z,4.70
2022-11-29T18:11:45.291Z,4.70
2022-11-29T18:14:19.775Z,4.60
2022-11-29T18:16:47.236Z,4.50
2022-11-29T18:19:16.862Z,4.50
2022-11-29T18:21:44.536Z,4.50
2022-11-29T18:24:11.475Z,4.50
2022-11-29T18:26:39.533Z,4.50
2022-11-29T18:29:07.346Z,4.40
2022-11-29T18:31:40.855Z,4.40
2022-11-29T18:34:09.841Z,4.40
2022-11-29T18:36:44.370Z,4.30
2022-11-29T18:39:14.243Z,4.30
2022-11-29T18:41:44.670Z,4.20
2022-11-29T18:44:13.820Z,4.20
2022-11-29T18:46:43.656Z,4.20
2022-11-29T18:49:13.111Z,4.10
2022-11-29T18:51:43.093Z,4.10
2022-11-29T18:54:10.076Z,4.00
2022-11-29T18:56:38.346Z,4.00
2022-11-29T18:59:10.191Z,4.00
2022-11-29T19:01:41.510Z,4.00
2022-11-29T19:04:10.791Z,4.00
2022-11-29T19:06:39.899Z,3.90
2022-11-29T19:09:11.006Z,3.90
2022-11-29T19:11:38.896Z,3.90
2022-11-29T19:14:11.546Z,3.90
2022-11-29T19:16:42.153Z,4.00
2022-11-29T19:19:09.042Z,4.10
2022-11-29T19:21:36.328Z,4.20
2022-11-29T19:24:05.302Z,4.30
2022-11-29T19:26:33.125Z,4.40
2022-11-29T19:29:00.994Z,4.40
2022-11-29T19:31:28.579Z,4.50
2022-11-29T19:33:56.020Z,4.50
2022-11-29T19:36:29.474Z,4.60
2022-11-29T19:38:57.051Z,4.60
2022-11-29T19:41:35.390Z,4.70
2022-11-29T19:44:04.659Z,4.80
2022-11-29T19:46:34.918Z,4.90
2022-11-29T19:49:02.613Z,4.90
2022-11-29T19:51:30.576Z,5.00
2022-11-29T19:54:02.472Z,5.00
2022-11-29T19:56:30.707Z,5.10
2022-11-29T19:58:59.548Z,5.20
2022-11-29T20:01:37.702Z,5.20
2022-11-29T20:04:07.533Z,5.30
2022-11-29T20:06:35.255Z,5.30
2022-11-29T20:09:02.099Z,5.40
2022-11-29T20:11:29.843Z,5.40
2022-11-29T20:14:01.275Z,5.50
2022-11-29T20:16:30.848Z,5.50
2022-11-29T20:18:58.667Z,5.50
2022-11-29T20:21:27.944Z,5.60
2022-11-29T20:23:57.068Z,5.60
2022-11-29T20:26:24.092Z,5.60
2022-11-29T20:28:51.118Z,5.60
2022-11-29T20:31:22.452Z,5.70
2022-11-29T20:33:51.245Z,5.70
2022-11-29T20:36:25.936Z,5.80
2022-11-29T20:39:16.798Z,5.80
2022-11-29T20:41:59.468Z,5.80
2022-11-29T20:44:53.990Z,5.90
2022-11-29T20:47:24.123Z,5.90
2022-11-29T20:49:51.569Z,5.90
2022-11-29T20:52:45.307Z,5.90
2022-11-29T20:55:12.219Z,6.00
2022-11-29T20:57:39.190Z,6.00
2022-11-29T21:00:07.542Z,6.00
2022-11-29T21:02:34.657Z,6.00
2022-11-29T21:05:01.238Z,6.10
2022-11-29T21:07:29.521Z,6.10
2022-11-29T21:10:01.417Z,6.10
2022-11-29T21:12:30.118Z,6.10
2022-11-29T21:14:57.673Z,6.10
2022-11-29T21:17:28.765Z,6.20
2022-11-29T21:20:00.471Z,6.20
2022-11-29T21:22:35.483Z,6.20
2022-11-29T21:25:29.927Z,6.20
2022-11-29T21:27:57.111Z,6.20
2022-11-29T21:30:24.866Z,6.20
2022-11-29T21:32:52.401Z,6.20
2022-11-29T21:35:19.273Z,6.30
2022-11-29T21:37:46.711Z,6.30
2022-11-29T21:40:15.035Z,6.30
2022-11-29T21:42:42.028Z,6.30
2022-11-29T21:45:14.928Z,6.30
2022-11-29T21:47:44.205Z,6.30
2022-11-29T21:50:12.585Z,6.30
2022-11-29T21:52:40.373Z,6.30
2022-11-29T21:55:07.284Z,6.30
2022-11-29T21:57:34.555Z,6.30
2022-11-29T22:00:01.254Z,6.30
2022-11-29T22:02:31.553Z,6.30
2022-11-29T22:04:58.232Z,6.30
2022-11-29T22:07:25.585Z,6.20
2022-11-29T22:09:52.316Z,6.20
2022-11-29T22:12:33.814Z,6.20
2022-11-29T22:15:01.407Z,6.20
2022-11-29T22:17:28.746Z,6.20
2022-11-29T22:19:55.338Z,6.30
2022-11-29T22:22:22.631Z,6.20
2022-11-29T22:24:49.627Z,6.30
2022-11-29T22:27:18.617Z,6.20
2022-11-29T22:29:45.301Z,6.30
2022-11-29T22:32:13.829Z,6.30
2022-11-29T22:34:40.466Z,6.30
2022-11-29T22:37:07.743Z,6.20
2022-11-29T22:39:34.347Z,6.20
2022-11-29T22:42:01.595Z,6.20
2022-11-29T22:44:28.311Z,6.20
2022-11-29T22:46:55.690Z,6.20
2022-11-29T22:49:22.354Z,6.20
2022-11-29T22:51:49.694Z,6.30
2022-11-29T22:54:17.221Z,6.20
2022-11-29T22:56:46.072Z,6.20
2022-11-29T22:59:13.387Z,6.20
2022-11-29T23:01:42.190Z,6.20
2022-11-29T23:04:10.653Z,6.20
2022-11-29T23:06:40.781Z,6.20
2022-11-29T23:09:17.011Z,6.20
2022-11-29T23:11:46.356Z,6.20
2022-11-29T23:14:13.232Z,6.20
2022-11-29T23:16:40.679Z,6.20
2022-11-29T23:19:07.391Z,6.20
2022-11-29T23:21:36.956Z,6.20
2022-11-29T23:24:03.730Z,6.20
2022-11-29T23:26:40.480Z,6.20
2022-11-29T23:29:10.400Z,6.20
2022-11-29T23:31:38.183Z,6.20
2022-11-29T23:34:05.539Z,6.20
2022-11-29T23:36:33.208Z,6.20
2022-11-29T23:39:00.714Z,6.20
2022-11-29T23:41:28.013Z,6.20
2022-11-29T23:43:54.767Z,6.20
2022-11-29T23:46:24.045Z,6.30
2022-11-29T23:48:51.413Z,6.30
2022-11-29T23:51:19.759Z,6.20
2022-11-29T23:53:50.302Z,6.30
2022-11-29T23:56:18.453Z,6.30
2022-11-29T23:58:45.634Z,6.20
